AAL2465 KCLT-KORF
Flight info
| Callsign | AAL2465 |
|---|---|
| Flight time | N/A |
| Altitude | 33000 |
| Route | BARMY5 NUTZE KOHLS1 |
| Aircraft | A21N/M-SDE2E3FGHIJ1RWXY/LB1 |
Departure
| Time | N/A |
|---|---|
| Airport | Charlotte Douglas International Airport (KCLT) |
Arrival
| Time | 2026-04-27 20:18 |
|---|---|
| Airport | Norfolk International Airport (KORF) |
| Time | Latitude | Longitude | Altitude | Speed | Heading |
|---|---|---|---|---|---|
| 2026-04-27 19:50 | 35.63123 | -78.87407 | 33268 ft | 472 kts | 72° |
| 2026-04-27 19:50 | 35.63854 | -78.83457 | 33268 ft | 474 kts | 72° |
| 2026-04-27 19:51 | 35.65304 | -78.75541 | 33260 ft | 475 kts | 72° |
| 2026-04-27 19:51 | 35.66755 | -78.67615 | 33276 ft | 475 kts | 72° |
| 2026-04-27 19:52 | 35.68201 | -78.59710 | 33268 ft | 474 kts | 72° |
| 2026-04-27 19:52 | 35.69638 | -78.51805 | 33281 ft | 472 kts | 72° |
| 2026-04-27 19:53 | 35.71762 | -78.40086 | 33266 ft | 466 kts | 72° |
| 2026-04-27 19:53 | 35.73182 | -78.32202 | 33273 ft | 474 kts | 72° |
| 2026-04-27 19:54 | 35.74608 | -78.24227 | 33273 ft | 483 kts | 72° |
| 2026-04-27 19:54 | 35.76049 | -78.16124 | 33285 ft | 485 kts | 72° |
| 2026-04-27 19:55 | 35.77486 | -78.08014 | 33295 ft | 485 kts | 72° |
| 2026-04-27 19:55 | 35.78906 | -77.99980 | 33294 ft | 481 kts | 72° |
| 2026-04-27 19:56 | 35.80305 | -77.92012 | 32949 ft | 477 kts | 72° |
| 2026-04-27 19:56 | 35.81017 | -77.87980 | 32615 ft | 485 kts | 72° |
| 2026-04-27 19:56 | 35.81841 | -77.83979 | 31794 ft | 477 kts | 65° |
| 2026-04-27 19:57 | 35.83357 | -77.80395 | 30731 ft | 468 kts | 50° |
| 2026-04-27 19:57 | 35.85335 | -77.77225 | 29727 ft | 468 kts | 46° |
| 2026-04-27 19:57 | 35.87374 | -77.74082 | 28667 ft | 471 kts | 47° |
| 2026-04-27 19:57 | 35.89408 | -77.70895 | 27611 ft | 475 kts | 48° |
| 2026-04-27 19:58 | 35.91432 | -77.67664 | 26554 ft | 477 kts | 49° |
| 2026-04-27 19:58 | 35.93455 | -77.64408 | 25527 ft | 479 kts | 49° |
| 2026-04-27 19:58 | 35.95476 | -77.61146 | 24674 ft | 476 kts | 49° |
| 2026-04-27 19:58 | 35.97467 | -77.57921 | 23983 ft | 470 kts | 49° |
| 2026-04-27 19:59 | 35.99443 | -77.54725 | 23136 ft | 466 kts | 49° |
| 2026-04-27 19:59 | 36.01404 | -77.51553 | 22433 ft | 461 kts | 49° |
| 2026-04-27 19:59 | 36.03366 | -77.48375 | 22002 ft | 468 kts | 50° |
| 2026-04-27 19:59 | 36.05325 | -77.45170 | 21609 ft | 465 kts | 50° |
| 2026-04-27 20:00 | 36.07257 | -77.42009 | 21026 ft | 457 kts | 50° |
| 2026-04-27 20:00 | 36.09166 | -77.38905 | 20371 ft | 450 kts | 50° |
| 2026-04-27 20:00 | 36.11049 | -77.35845 | 19703 ft | 445 kts | 50° |
| 2026-04-27 20:00 | 36.12919 | -77.32822 | 19051 ft | 440 kts | 50° |
| 2026-04-27 20:01 | 36.14772 | -77.29825 | 18288 ft | 434 kts | 50° |
| 2026-04-27 20:01 | 36.16596 | -77.26858 | 17246 ft | 432 kts | 50° |
| 2026-04-27 20:01 | 36.18413 | -77.23899 | 16491 ft | 430 kts | 50° |
| 2026-04-27 20:01 | 36.20209 | -77.20964 | 15885 ft | 425 kts | 50° |
| 2026-04-27 20:02 | 36.21985 | -77.18062 | 15311 ft | 420 kts | 50° |
| 2026-04-27 20:02 | 36.23734 | -77.15202 | 14766 ft | 414 kts | 50° |
| 2026-04-27 20:02 | 36.25460 | -77.12375 | 14310 ft | 407 kts | 50° |
| 2026-04-27 20:02 | 36.27156 | -77.09597 | 13851 ft | 401 kts | 50° |
| 2026-04-27 20:03 | 36.28824 | -77.06861 | 13370 ft | 395 kts | 50° |
| 2026-04-27 20:03 | 36.30472 | -77.04148 | 12785 ft | 393 kts | 50° |
| 2026-04-27 20:03 | 36.32107 | -77.01457 | 12249 ft | 389 kts | 50° |
| 2026-04-27 20:03 | 36.33679 | -76.98872 | 11818 ft | 377 kts | 50° |
| 2026-04-27 20:04 | 36.35227 | -76.96327 | 11547 ft | 361 kts | 50° |
| 2026-04-27 20:04 | 36.36708 | -76.93893 | 11336 ft | 346 kts | 50° |
| 2026-04-27 20:04 | 36.38125 | -76.91563 | 11144 ft | 331 kts | 50° |
| 2026-04-27 20:04 | 36.39481 | -76.89329 | 10817 ft | 317 kts | 50° |
| 2026-04-27 20:05 | 36.40779 | -76.87191 | 10521 ft | 303 kts | 50° |
| 2026-04-27 20:05 | 36.42016 | -76.85148 | 10268 ft | 290 kts | 50° |
| 2026-04-27 20:05 | 36.43208 | -76.83178 | 9895 ft | 282 kts | 50° |
| 2026-04-27 20:05 | 36.44357 | -76.81282 | 9498 ft | 275 kts | 50° |
| 2026-04-27 20:06 | 36.45495 | -76.79400 | 9123 ft | 271 kts | 50° |
| 2026-04-27 20:06 | 36.46628 | -76.77530 | 8798 ft | 271 kts | 50° |
| 2026-04-27 20:06 | 36.47762 | -76.75655 | 8476 ft | 272 kts | 50° |
| 2026-04-27 20:06 | 36.48901 | -76.73772 | 8149 ft | 273 kts | 50° |
| 2026-04-27 20:07 | 36.50041 | -76.71885 | 7842 ft | 273 kts | 50° |
| 2026-04-27 20:07 | 36.51182 | -76.69992 | 7545 ft | 273 kts | 50° |
| 2026-04-27 20:07 | 36.52333 | -76.68082 | 7235 ft | 270 kts | 51° |
| 2026-04-27 20:07 | 36.53455 | -76.66230 | 6910 ft | 266 kts | 49° |
| 2026-04-27 20:08 | 36.54613 | -76.64453 | 6572 ft | 263 kts | 48° |
| 2026-04-27 20:08 | 36.55743 | -76.62749 | 6253 ft | 263 kts | 48° |
| 2026-04-27 20:08 | 36.56921 | -76.60970 | 5952 ft | 261 kts | 49° |
| 2026-04-27 20:08 | 36.58029 | -76.59290 | 5640 ft | 257 kts | 49° |
| 2026-04-27 20:09 | 36.59179 | -76.57547 | 5326 ft | 256 kts | 49° |
| 2026-04-27 20:09 | 36.60305 | -76.55838 | 5059 ft | 255 kts | 50° |
| 2026-04-27 20:09 | 36.61420 | -76.54143 | 4748 ft | 252 kts | 50° |
| 2026-04-27 20:09 | 36.62528 | -76.52455 | 4412 ft | 251 kts | 50° |
| 2026-04-27 20:10 | 36.63629 | -76.50764 | 4103 ft | 251 kts | 50° |
| 2026-04-27 20:10 | 36.64702 | -76.49114 | 3862 ft | 247 kts | 51° |
| 2026-04-27 20:10 | 36.65783 | -76.47450 | 3617 ft | 241 kts | 50° |
| 2026-04-27 20:10 | 36.66838 | -76.45843 | 3251 ft | 239 kts | 50° |
| 2026-04-27 20:11 | 36.67793 | -76.44208 | 2871 ft | 235 kts | 61° |
| 2026-04-27 20:11 | 36.68455 | -76.42361 | 2555 ft | 232 kts | 65° |
| 2026-04-27 20:11 | 36.69209 | -76.40598 | 2268 ft | 229 kts | 57° |
| 2026-04-27 20:11 | 36.70159 | -76.39068 | 2104 ft | 220 kts | 48° |
| 2026-04-27 20:12 | 36.71222 | -76.37775 | 2063 ft | 205 kts | 42° |
| 2026-04-27 20:12 | 36.71939 | -76.37015 | 2059 ft | 195 kts | 40° |
| 2026-04-27 20:12 | 36.73237 | -76.35683 | 2063 ft | 173 kts | 39° |
| 2026-04-27 20:12 | 36.74177 | -76.34763 | 2071 ft | 172 kts | 39° |
| 2026-04-27 20:13 | 36.75124 | -76.33843 | 2019 ft | 173 kts | 39° |
| 2026-04-27 20:13 | 36.76077 | -76.32923 | 1896 ft | 173 kts | 39° |
| 2026-04-27 20:13 | 36.77019 | -76.32014 | 1782 ft | 170 kts | 39° |
| 2026-04-27 20:13 | 36.77966 | -76.31100 | 1670 ft | 172 kts | 38° |
| 2026-04-27 20:14 | 36.78916 | -76.30183 | 1580 ft | 173 kts | 38° |
| 2026-04-27 20:14 | 36.79851 | -76.29280 | 1563 ft | 171 kts | 38° |
| 2026-04-27 20:14 | 36.80805 | -76.28360 | 1576 ft | 175 kts | 39° |
| 2026-04-27 20:14 | 36.81760 | -76.27435 | 1601 ft | 166 kts | 39° |
| 2026-04-27 20:15 | 36.82600 | -76.26625 | 1607 ft | 140 kts | 40° |
| 2026-04-27 20:15 | 36.83306 | -76.25943 | 1464 ft | 116 kts | 40° |
| 2026-04-27 20:15 | 36.83935 | -76.25334 | 1301 ft | 114 kts | 39° |
| 2026-04-27 20:15 | 36.84560 | -76.24729 | 1132 ft | 112 kts | 40° |
| 2026-04-27 20:16 | 36.85172 | -76.24137 | 1000 ft | 111 kts | 39° |
| 2026-04-27 20:16 | 36.85794 | -76.23536 | 837 ft | 113 kts | 39° |
| 2026-04-27 20:16 | 36.86437 | -76.22926 | 638 ft | 117 kts | 39° |
| 2026-04-27 20:16 | 36.87072 | -76.22325 | 496 ft | 113 kts | 42° |
| 2026-04-27 20:17 | 36.87688 | -76.21715 | 340 ft | 112 kts | 43° |
| 2026-04-27 20:17 | 36.88313 | -76.21096 | 183 ft | 114 kts | 42° |
| 2026-04-27 20:17 | 36.88947 | -76.20481 | 60 ft | 115 kts | 42° |
| 2026-04-27 20:17 | 36.89350 | -76.20093 | 47 ft | 104 kts | 40° |
| 2026-04-27 20:18 | 36.89806 | -76.19650 | 40 ft | 31 kts | 37° |
| 2026-04-27 20:18 | 36.89942 | -76.19522 | 40 ft | 11 kts | 37° |
| 2026-04-27 20:18 | 36.89994 | -76.19496 | 41 ft | 9 kts | 340° |
| 2026-04-27 20:18 | 36.90047 | -76.19559 | 39 ft | 13 kts | 308° |
| 2026-04-27 20:19 | 36.90027 | -76.19659 | 39 ft | 15 kts | 217° |
| 2026-04-27 20:19 | 36.89933 | -76.19744 | 40 ft | 18 kts | 216° |
| 2026-04-27 20:19 | 36.89840 | -76.19833 | 39 ft | 10 kts | 220° |
| 2026-04-27 20:19 | 36.89774 | -76.19902 | 41 ft | 14 kts | 217° |
| 2026-04-27 20:20 | 36.89740 | -76.19998 | 43 ft | 15 kts | 289° |
| 2026-04-27 20:20 | 36.89782 | -76.20118 | 41 ft | 13 kts | 302° |
| 2026-04-27 20:20 | 36.89854 | -76.20145 | 39 ft | 0 kts | 358° |